Time;durP1;ratioP1;P1;durP2;ratioP2;P2;SDS_P1;SDS_P2;PMS_P1;PMS_P2;Temp;Humidity;BMP_temperature;BMP_pressure;BME280_temperature;BME280_humidity;BME280_pressure;Samples;Min_cycle;Max_cycle;Signal;HPM_P1;HPM_P2
2022/05/18 00:00:29;;;;;;;5.87;2.77;;;17.90;99.90;;;;;;5018477;28;20464;-79
2022/05/18 00:02:56;;;;;;;4.87;3.63;;;17.90;99.90;;;;;;5018224;28;20471;-79
2022/05/18 00:05:23;;;;;;;4.00;2.40;;;17.80;99.90;;;;;;5018331;28;20473;-80
2022/05/18 00:07:50;;;;;;;4.37;2.90;;;17.80;99.90;;;;;;5019723;28;20460;-80
2022/05/18 00:10:18;;;;;;;4.37;2.83;;;17.80;99.90;;;;;;5019754;28;20485;-80
2022/05/18 00:12:45;;;;;;;4.87;2.50;;;17.70;99.90;;;;;;5017861;28;20482;-79
2022/05/18 00:15:15;;;;;;;7.23;2.60;;;17.70;99.90;;;;;;5019287;28;20496;-80
2022/05/18 00:17:42;;;;;;;5.20;2.60;;;17.70;99.90;;;;;;5020530;28;20484;-79
2022/05/18 00:20:11;;;;;;;3.87;3.33;;;17.70;99.90;;;;;;5020078;28;20832;-80
2022/05/18 00:22:44;;;;;;;4.10;2.87;;;17.60;99.90;;;;;;5022118;28;20456;-80
2022/05/18 00:25:11;;;;;;;3.90;2.80;;;17.60;99.90;;;;;;5019206;28;20575;-79
2022/05/18 00:27:38;;;;;;;6.20;3.50;;;17.60;99.90;;;;;;5019442;28;20464;-80
2022/05/18 00:30:06;;;;;;;4.30;3.10;;;17.60;99.90;;;;;;5019262;28;20487;-79
2022/05/18 00:32:34;;;;;;;4.27;2.73;;;17.60;99.90;;;;;;5020578;28;20491;-80
2022/05/18 00:35:01;;;;;;;4.60;2.57;;;17.60;99.90;;;;;;5019453;28;20519;-80
2022/05/18 00:37:28;;;;;;;4.00;2.10;;;17.60;99.90;;;;;;5020099;28;20453;-79
2022/05/18 00:39:54;;;;;;;3.43;2.43;;;17.60;99.90;;;;;;5019015;28;20549;-80
2022/05/18 00:42:24;;;;;;;4.80;2.73;;;17.50;99.90;;;;;;5019562;28;20560;-81
2022/05/18 00:44:52;;;;;;;4.97;2.90;;;17.50;99.90;;;;;;5018841;28;20575;-78
2022/05/18 00:47:20;;;;;;;5.37;2.90;;;17.40;99.90;;;;;;5019807;28;20498;-79
2022/05/18 00:49:57;;;;;;;4.27;2.27;;;17.40;99.90;;;;;;5019299;28;20463;-80
2022/05/18 00:52:29;;;;;;;5.63;2.90;;;17.30;99.90;;;;;;5019078;28;20580;-80
2022/05/18 00:54:58;;;;;;;4.00;2.20;;;17.30;99.90;;;;;;5019115;28;20477;-80
2022/05/18 00:57:31;;;;;;;4.60;2.47;;;17.30;99.90;;;;;;5019418;28;20454;-80
2022/05/18 01:00:02;;;;;;;5.53;2.73;;;17.30;99.90;;;;;;5000486;28;20544;-79
2022/05/18 01:02:33;;;;;;;3.87;2.40;;;17.20;99.90;;;;;;5011957;28;20457;-78
2022/05/18 01:05:05;;;;;;;4.87;2.70;;;17.20;99.90;;;;;;5017524;28;20472;-79
2022/05/18 01:07:36;;;;;;;5.50;3.30;;;17.20;99.90;;;;;;5017223;28;20450;-79
2022/05/18 01:10:03;;;;;;;3.70;2.37;;;17.20;99.90;;;;;;5021250;28;20554;-76
2022/05/18 01:12:30;;;;;;;5.70;2.60;;;17.20;99.90;;;;;;5017345;28;20475;-78
2022/05/18 01:15:00;;;;;;;7.20;2.57;;;17.20;99.90;;;;;;5024429;28;20485;-76
2022/05/18 01:17:30;;;;;;;4.80;3.10;;;17.10;99.90;;;;;;5023937;28;20538;-77
2022/05/18 01:19:59;;;;;;;3.50;2.70;;;17.10;99.90;;;;;;5022379;28;20460;-79
2022/05/18 01:22:36;;;;;;;3.37;2.33;;;17.10;99.90;;;;;;5023719;28;20481;-76
2022/05/18 01:25:16;;;;;;;3.80;2.53;;;17.10;99.90;;;;;;5022878;28;20503;-77
2022/05/18 01:27:44;;;;;;;6.73;2.70;;;17.00;99.90;;;;;;5023199;28;20990;-79
2022/05/18 01:30:12;;;;;;;3.40;2.70;;;17.00;99.90;;;;;;5025416;28;20457;-79
2022/05/18 01:32:41;;;;;;;8.80;2.87;;;17.10;99.90;;;;;;5024074;28;20481;-77
2022/05/18 01:35:09;;;;;;;3.60;2.23;;;17.00;99.90;;;;;;5017395;28;20488;-80
2022/05/18 01:37:36;;;;;;;3.40;2.90;;;17.00;99.90;;;;;;5016187;28;20456;-80
2022/05/18 01:40:08;;;;;;;4.70;2.53;;;16.90;99.90;;;;;;5016457;28;20588;-80
2022/05/18 01:42:41;;;;;;;8.03;3.47;;;16.90;99.90;;;;;;5016115;28;20456;-81
2022/05/18 01:45:09;;;;;;;3.80;2.47;;;16.90;99.90;;;;;;5015591;28;20481;-80
2022/05/18 01:47:38;;;;;;;7.00;2.47;;;16.90;99.90;;;;;;5016372;28;20460;-77
2022/05/18 01:50:09;;;;;;;6.20;3.07;;;16.90;99.90;;;;;;5015143;28;20450;-79
2022/05/18 01:52:36;;;;;;;4.57;2.87;;;16.90;99.90;;;;;;5017005;28;20491;-80
2022/05/18 01:55:04;;;;;;;4.37;2.63;;;16.90;99.90;;;;;;5016469;28;20572;-80
2022/05/18 01:57:31;;;;;;;5.50;2.83;;;16.90;99.90;;;;;;5017595;28;20452;-79
2022/05/18 01:59:58;;;;;;;4.20;2.40;;;16.80;99.90;;;;;;5016762;28;20468;-80
2022/05/18 02:02:26;;;;;;;4.83;2.43;;;16.90;99.90;;;;;;5009407;28;20446;-79
2022/05/18 02:04:53;;;;;;;4.37;2.47;;;16.90;99.90;;;;;;5017164;28;20476;-78
2022/05/18 02:07:20;;;;;;;4.00;2.73;;;16.80;99.90;;;;;;5017795;28;20546;-79
2022/05/18 02:09:47;;;;;;;4.87;2.63;;;16.90;99.90;;;;;;5017028;28;20459;-79
2022/05/18 02:12:14;;;;;;;4.93;2.73;;;16.90;99.90;;;;;;5017817;28;20499;-80
2022/05/18 02:14:41;;;;;;;4.67;3.00;;;17.00;99.90;;;;;;5017211;28;20477;-79
2022/05/18 02:17:07;;;;;;;3.23;2.50;;;17.00;99.90;;;;;;5014009;28;20533;-80
2022/05/18 02:19:36;;;;;;;5.13;2.87;;;17.00;99.90;;;;;;5017181;28;20455;-80
2022/05/18 02:22:03;;;;;;;4.97;2.80;;;17.00;99.90;;;;;;5015984;28;20485;-80
2022/05/18 02:24:30;;;;;;;4.57;2.93;;;17.00;99.90;;;;;;5003477;28;20460;-80
2022/05/18 02:26:57;;;;;;;5.13;3.33;;;17.00;99.90;;;;;;4997003;28;20498;-80
2022/05/18 02:29:24;;;;;;;6.30;3.13;;;17.00;99.90;;;;;;5013240;28;20525;-80
2022/05/18 02:31:51;;;;;;;4.53;3.10;;;17.00;99.90;;;;;;5017311;28;20850;-80
2022/05/18 02:34:18;;;;;;;3.90;2.50;;;17.00;99.90;;;;;;5016352;28;20955;-80
2022/05/18 02:36:46;;;;;;;6.33;3.50;;;17.00;99.90;;;;;;5015967;28;21048;-80
2022/05/18 02:39:12;;;;;;;4.17;3.23;;;17.00;99.90;;;;;;5017631;28;20462;-79
2022/05/18 02:41:39;;;;;;;5.87;2.63;;;17.00;99.90;;;;;;5016713;28;20458;-79
2022/05/18 02:44:07;;;;;;;6.00;3.30;;;16.90;99.90;;;;;;5016354;28;20902;-79
2022/05/18 02:46:33;;;;;;;4.00;2.50;;;17.00;99.90;;;;;;5016169;28;20481;-79
2022/05/18 02:49:00;;;;;;;6.03;3.00;;;17.00;99.90;;;;;;5018873;28;20542;-80
2022/05/18 02:51:27;;;;;;;4.80;3.00;;;17.00;99.90;;;;;;5018641;28;20454;-81
2022/05/18 02:53:55;;;;;;;4.73;2.70;;;16.90;99.90;;;;;;5019851;28;20910;-81
2022/05/18 02:56:23;;;;;;;3.10;2.80;;;17.00;99.90;;;;;;5019086;28;20475;-80
2022/05/18 02:58:52;;;;;;;5.27;3.20;;;17.00;99.90;;;;;;5020008;28;20463;-81
2022/05/18 03:01:21;;;;;;;3.40;2.80;;;16.90;99.90;;;;;;5019730;28;20466;-82
2022/05/18 03:03:49;;;;;;;4.40;2.50;;;16.90;99.90;;;;;;5020303;28;20454;-81
2022/05/18 03:06:17;;;;;;;5.50;2.70;;;17.00;99.90;;;;;;5019330;28;20570;-81
2022/05/18 03:08:46;;;;;;;4.03;2.50;;;17.00;99.90;;;;;;5019776;28;20461;-80
2022/05/18 03:11:15;;;;;;;6.93;3.20;;;16.90;99.90;;;;;;5019345;28;20476;-81
2022/05/18 03:13:42;;;;;;;5.60;3.10;;;16.90;99.90;;;;;;5016606;28;20843;-81
2022/05/18 03:16:10;;;;;;;5.73;3.13;;;16.90;99.90;;;;;;5020448;28;20479;-80
2022/05/18 03:18:37;;;;;;;4.00;3.33;;;16.90;99.90;;;;;;5019094;28;20452;-81
2022/05/18 03:23:49;;;;;;;7.57;3.50;;;16.80;99.90;;;;;;5019032;28;20493;-82
2022/05/18 03:26:19;;;;;;;5.50;3.60;;;16.80;99.90;;;;;;5016183;28;20556;-82
2022/05/18 03:28:49;;;;;;;5.03;3.10;;;16.80;99.90;;;;;;5013634;28;20447;-81
2022/05/18 03:31:17;;;;;;;5.23;3.60;;;16.70;99.90;;;;;;5016378;28;20452;-80
2022/05/18 03:33:44;;;;;;;4.80;2.93;;;16.70;99.90;;;;;;5012920;28;20494;-81
2022/05/18 03:36:12;;;;;;;4.57;2.90;;;16.70;99.90;;;;;;5015311;28;21060;-81
2022/05/18 03:38:39;;;;;;;5.27;3.23;;;16.70;99.90;;;;;;5015549;28;20454;-80
2022/05/18 03:41:08;;;;;;;4.87;3.33;;;16.70;99.90;;;;;;5015323;28;20480;-81
2022/05/18 03:43:36;;;;;;;13.83;4.00;;;16.80;99.90;;;;;;5015866;28;20481;-80
2022/05/18 03:46:04;;;;;;;6.20;3.00;;;16.80;99.90;;;;;;5013999;28;20476;-78
2022/05/18 03:48:32;;;;;;;4.37;2.40;;;16.80;99.90;;;;;;5015947;28;20438;-80
2022/05/18 03:51:01;;;;;;;4.70;2.87;;;16.70;99.90;;;;;;5016136;28;20461;-80
2022/05/18 03:53:28;;;;;;;3.80;3.30;;;16.70;99.90;;;;;;5016218;28;20493;-79
2022/05/18 03:55:56;;;;;;;4.10;2.53;;;16.70;99.90;;;;;;5014754;28;20469;-80
2022/05/18 03:58:23;;;;;;;4.40;2.70;;;16.70;99.90;;;;;;5013836;28;20460;-80
2022/05/18 04:00:53;;;;;;;4.33;3.70;;;16.70;99.90;;;;;;5011806;28;20450;-79
2022/05/18 04:03:21;;;;;;;7.80;4.03;;;16.80;99.90;;;;;;5016062;28;20440;-80
2022/05/18 04:05:51;;;;;;;5.07;3.57;;;16.80;99.90;;;;;;5015742;28;20481;-78
2022/05/18 04:08:18;;;;;;;4.40;2.77;;;16.80;99.90;;;;;;5015494;28;20450;-79
2022/05/18 04:10:45;;;;;;;5.20;3.03;;;16.80;99.90;;;;;;5015655;28;20824;-80
2022/05/18 04:13:14;;;;;;;7.77;3.07;;;16.90;99.90;;;;;;5014896;28;20493;-79
2022/05/18 04:15:41;;;;;;;6.80;3.43;;;16.90;99.90;;;;;;5016522;28;20477;-77
2022/05/18 04:18:11;;;;;;;4.30;3.50;;;16.90;99.90;;;;;;5015204;28;20895;-77
2022/05/18 04:20:39;;;;;;;5.00;3.20;;;16.90;99.90;;;;;;5014901;28;20457;-80
2022/05/18 04:23:06;;;;;;;6.30;3.40;;;16.90;99.90;;;;;;5015106;28;20455;-80
2022/05/18 04:25:34;;;;;;;4.90;3.47;;;17.00;99.90;;;;;;5014026;28;20940;-80
2022/05/18 04:28:01;;;;;;;4.00;3.07;;;17.10;99.90;;;;;;5015276;28;20465;-80
2022/05/18 04:30:28;;;;;;;5.63;3.10;;;17.10;99.90;;;;;;5014496;28;20469;-80
2022/05/18 04:33:01;;;;;;;10.43;3.10;;;17.10;99.90;;;;;;5016083;28;20480;-79
2022/05/18 04:35:30;;;;;;;6.77;3.03;;;17.10;99.90;;;;;;5018400;28;20563;-80
2022/05/18 04:37:57;;;;;;;2.83;2.40;;;17.20;99.90;;;;;;5056127;22;20501;-78
2022/05/18 04:40:26;;;;;;;5.73;3.03;;;17.30;99.90;;;;;;5032868;28;20447;-75
2022/05/18 04:42:53;;;;;;;6.97;3.63;;;17.30;99.90;;;;;;5032485;28;20479;-75
2022/05/18 04:45:22;;;;;;;4.30;3.37;;;17.30;99.90;;;;;;5032847;28;20951;-76
2022/05/18 04:47:49;;;;;;;7.10;3.53;;;17.40;99.90;;;;;;5018656;28;20475;-74
2022/05/18 04:50:23;;;;;;;6.57;3.20;;;17.40;99.90;;;;;;5012148;28;20453;-74
2022/05/18 04:52:51;;;;;;;5.20;3.60;;;17.50;99.90;;;;;;5012826;28;20487;-77
2022/05/18 04:55:18;;;;;;;5.43;3.30;;;17.50;99.90;;;;;;5012752;28;20952;-78
2022/05/18 04:57:45;;;;;;;4.20;2.80;;;17.60;99.90;;;;;;5012314;28;20471;-76
2022/05/18 05:00:15;;;;;;;6.87;3.20;;;17.60;99.90;;;;;;5011878;28;20967;-79
2022/05/18 05:02:42;;;;;;;3.73;2.80;;;17.70;99.90;;;;;;5012342;28;20448;-78
2022/05/18 05:05:11;;;;;;;5.20;3.20;;;17.70;99.90;;;;;;5010155;28;21140;-78
2022/05/18 05:07:38;;;;;;;3.40;3.07;;;17.80;99.90;;;;;;5009027;28;20852;-78
2022/05/18 05:10:08;;;;;;;6.97;3.00;;;17.90;99.90;;;;;;5012285;28;20457;-78
2022/05/18 05:12:35;;;;;;;4.50;3.60;;;17.90;99.90;;;;;;5009645;28;21017;-77
2022/05/18 05:15:02;;;;;;;4.57;3.00;;;18.00;99.90;;;;;;4997758;28;20460;-77
2022/05/18 05:17:29;;;;;;;7.50;3.50;;;18.10;99.90;;;;;;5006853;28;20477;-75
2022/05/18 05:19:57;;;;;;;5.80;2.93;;;18.20;99.90;;;;;;5011739;28;20483;-76
2022/05/18 05:22:24;;;;;;;4.73;2.97;;;18.30;99.90;;;;;;5011129;28;20558;-77
2022/05/18 05:24:51;;;;;;;3.83;2.73;;;18.40;99.90;;;;;;5014665;28;20550;-78
2022/05/18 05:27:19;;;;;;;6.53;3.33;;;18.40;99.90;;;;;;5019507;28;20508;-77
2022/05/18 05:29:46;;;;;;;7.43;2.90;;;18.50;99.90;;;;;;5006829;28;20466;-77
2022/05/18 05:32:13;;;;;;;4.03;2.83;;;18.60;99.90;;;;;;5006003;28;20453;-77
2022/05/18 05:34:43;;;;;;;4.17;2.90;;;18.60;99.90;;;;;;5008835;28;21027;-78
2022/05/18 05:37:10;;;;;;;5.57;2.80;;;18.70;99.90;;;;;;5009104;28;20491;-76
2022/05/18 05:39:37;;;;;;;8.10;2.87;;;18.70;99.90;;;;;;5003025;28;20461;-78
2022/05/18 05:42:04;;;;;;;5.03;2.60;;;18.80;99.90;;;;;;5001457;28;20556;-76
2022/05/18 05:44:32;;;;;;;5.23;2.67;;;18.90;99.90;;;;;;5012885;28;20820;-78
2022/05/18 05:47:03;;;;;;;8.27;3.60;;;19.00;99.90;;;;;;5012119;28;20572;-76
2022/05/18 05:49:33;;;;;;;5.17;3.03;;;19.00;99.90;;;;;;5012088;28;20441;-78
2022/05/18 05:52:00;;;;;;;6.60;3.00;;;19.00;99.90;;;;;;5013349;28;20575;-80
2022/05/18 05:54:27;;;;;;;4.93;2.47;;;19.10;99.90;;;;;;5013301;28;20497;-77
2022/05/18 05:57:02;;;;;;;4.50;3.20;;;19.10;99.90;;;;;;5013753;28;20482;-77
2022/05/18 05:59:32;;;;;;;7.20;3.40;;;19.20;99.90;;;;;;5012867;28;20892;-77
2022/05/18 06:02:01;;;;;;;4.83;3.07;;;19.20;99.90;;;;;;5013070;28;20918;-79
2022/05/18 06:04:31;;;;;;;4.13;2.47;;;19.30;99.90;;;;;;5016598;28;20961;-78
2022/05/18 06:06:57;;;;;;;4.43;3.00;;;19.30;99.90;;;;;;5016235;28;20505;-79
2022/05/18 06:09:25;;;;;;;6.30;2.87;;;19.40;99.90;;;;;;5017207;28;20461;-80
2022/05/18 06:11:52;;;;;;;4.70;2.70;;;19.40;99.90;;;;;;5019958;28;20486;-80
2022/05/18 06:14:19;;;;;;;5.90;2.67;;;19.50;99.90;;;;;;5017177;28;21073;-79
2022/05/18 06:16:47;;;;;;;20.93;10.33;;;19.60;99.90;;;;;;5018497;28;20474;-76
2022/05/18 06:19:17;;;;;;;20.67;9.83;;;19.80;99.90;;;;;;5011670;28;20454;-80
2022/05/18 06:21:46;;;;;;;6.57;3.33;;;19.80;99.90;;;;;;5018631;28;20458;-78
2022/05/18 06:24:14;;;;;;;6.87;2.77;;;19.90;99.90;;;;;;5028648;28;20449;-77
2022/05/18 06:26:41;;;;;;;5.07;2.77;;;20.00;99.90;;;;;;5021416;28;20857;-78
2022/05/18 06:29:08;;;;;;;5.33;2.63;;;20.10;99.90;;;;;;5022771;28;20799;-80
2022/05/18 06:31:34;;;;;;;4.20;2.90;;;20.20;99.90;;;;;;5011223;28;20548;-78
2022/05/18 06:34:01;;;;;;;4.70;2.83;;;20.30;99.90;;;;;;5017598;28;20482;-79
2022/05/18 06:36:30;;;;;;;3.93;2.37;;;20.40;99.90;;;;;;5020909;28;20442;-79
2022/05/18 06:38:57;;;;;;;5.30;2.60;;;20.60;99.90;;;;;;5031895;28;20449;-79
2022/05/18 06:41:24;;;;;;;3.63;2.07;;;20.60;99.90;;;;;;5028359;28;20449;-80
2022/05/18 06:43:52;;;;;;;3.87;2.20;;;20.70;99.90;;;;;;5028794;28;20480;-80
2022/05/18 06:46:20;;;;;;;3.60;2.30;;;20.80;99.90;;;;;;5024441;28;20445;-79
2022/05/18 06:48:48;;;;;;;5.00;2.00;;;20.90;99.90;;;;;;5028205;28;20905;-79
2022/05/18 06:51:21;;;;;;;4.43;2.10;;;21.10;99.90;;;;;;5029631;28;20452;-78
2022/05/18 06:53:51;;;;;;;3.40;2.47;;;21.20;99.90;;;;;;5028671;28;20477;-81
2022/05/18 06:56:19;;;;;;;5.90;3.20;;;21.30;99.90;;;;;;5027804;28;20446;-81
2022/05/18 06:58:46;;;;;;;3.07;1.97;;;21.40;99.90;;;;;;5028821;28;20476;-79
2022/05/18 07:01:14;;;;;;;5.50;2.00;;;21.50;99.90;;;;;;5027178;28;20441;-79
2022/05/18 07:03:41;;;;;;;4.00;2.20;;;21.70;99.90;;;;;;5024840;28;20453;-78
2022/05/18 07:06:10;;;;;;;4.17;2.17;;;21.90;99.90;;;;;;5026840;28;20535;-78
2022/05/18 07:08:37;;;;;;;3.90;2.07;;;22.00;99.90;;;;;;5025496;28;21086;-79
2022/05/18 07:11:06;;;;;;;3.90;2.20;;;22.00;99.90;;;;;;5029893;28;20678;-77
2022/05/18 07:13:34;;;;;;;3.97;2.30;;;22.10;99.90;;;;;;5029017;28;20973;-79
2022/05/18 07:16:02;;;;;;;3.10;1.53;;;22.10;99.90;;;;;;5023626;28;20476;-79
2022/05/18 07:18:32;;;;;;;6.03;2.07;;;22.10;99.90;;;;;;5028507;28;20511;-78
2022/05/18 07:21:02;;;;;;;6.60;2.40;;;22.20;99.90;;;;;;5023755;28;20516;-78
2022/05/18 07:23:29;;;;;;;3.70;1.87;;;22.30;99.90;;;;;;5028255;28;20449;-78
2022/05/18 07:25:58;;;;;;;4.63;2.43;;;22.40;99.90;;;;;;5028931;28;20795;-80
2022/05/18 07:28:27;;;;;;;3.33;1.90;;;22.40;99.90;;;;;;5025842;28;20974;-79
2022/05/18 07:30:54;;;;;;;3.50;2.07;;;22.50;99.90;;;;;;5028914;28;20431;-79
2022/05/18 07:33:30;;;;;;;3.00;1.77;;;22.60;99.90;;;;;;5019526;28;20481;-80
2022/05/18 07:35:57;;;;;;;4.80;2.20;;;22.70;99.90;;;;;;5025528;28;20461;-81
2022/05/18 07:38:27;;;;;;;3.80;2.00;;;22.90;99.90;;;;;;5019584;28;20473;-79
2022/05/18 07:40:54;;;;;;;2.70;1.70;;;23.00;99.90;;;;;;5028497;28;20506;-80
2022/05/18 07:43:21;;;;;;;4.60;2.10;;;23.10;99.90;;;;;;5039117;28;20965;-79
2022/05/18 07:45:51;;;;;;;4.80;2.20;;;23.20;99.90;;;;;;5018079;28;20463;-81
2022/05/18 07:48:18;;;;;;;6.57;2.20;;;23.40;99.90;;;;;;5017967;28;20837;-80
2022/05/18 07:50:45;;;;;;;4.20;2.20;;;23.50;99.90;;;;;;5018325;28;20461;-79
2022/05/18 07:53:12;;;;;;;3.70;1.90;;;23.60;99.90;;;;;;5018147;28;20452;-79
2022/05/18 07:55:39;;;;;;;4.30;2.33;;;23.70;99.90;;;;;;5019337;28;20488;-80
2022/05/18 07:58:08;;;;;;;2.73;2.03;;;23.80;99.90;;;;;;5021585;28;20473;-80
2022/05/18 08:00:35;;;;;;;3.00;1.70;;;23.90;99.90;;;;;;5000195;28;20459;-80
2022/05/18 08:03:03;;;;;;;3.63;2.00;;;24.10;99.90;;;;;;5003148;28;20451;-81
2022/05/18 08:05:31;;;;;;;3.13;1.63;;;24.20;99.90;;;;;;5020041;28;20454;-82
2022/05/18 08:07:58;;;;;;;4.53;2.10;;;24.40;99.90;;;;;;5021621;28;20560;-80
2022/05/18 08:15:55;;;;;;;5.70;2.50;;;24.80;99.90;;;;;;5019313;28;20494;-79
2022/05/18 08:18:23;;;;;;;5.50;2.20;;;25.00;99.90;;;;;;5019542;28;20848;-80
2022/05/18 08:20:50;;;;;;;5.30;1.97;;;25.10;99.90;;;;;;5019498;28;20472;-79
2022/05/18 08:23:17;;;;;;;3.17;1.63;;;25.30;99.90;;;;;;5016559;28;20449;-80
2022/05/18 08:25:46;;;;;;;3.10;1.53;;;25.50;99.90;;;;;;5006425;28;20542;-81
2022/05/18 08:28:13;;;;;;;3.10;2.10;;;25.50;99.90;;;;;;5016503;28;20481;-78
2022/05/18 08:30:42;;;;;;;2.90;1.70;;;25.80;99.90;;;;;;5010507;28;20517;-78
2022/05/18 08:33:09;;;;;;;3.70;1.50;;;26.00;99.90;;;;;;5018510;28;20480;-79
2022/05/18 08:35:39;;;;;;;4.50;2.37;;;26.30;99.90;;;;;;5017868;28;20862;-79
2022/05/18 08:38:07;;;;;;;4.10;1.53;;;26.60;99.90;;;;;;5017472;28;20540;-79
2022/05/18 08:40:41;;;;;;;3.97;1.73;;;26.70;99.90;;;;;;5014299;28;20456;-79
2022/05/18 08:43:11;;;;;;;3.33;1.60;;;27.20;99.90;;;;;;5015195;28;20472;-80
2022/05/18 08:45:41;;;;;;;3.33;1.57;;;27.50;99.90;;;;;;5012497;28;20844;-79
2022/05/18 08:48:21;;;;;;;4.27;1.80;;;27.70;99.90;;;;;;5012444;28;21019;-80
2022/05/18 08:50:49;;;;;;;3.70;1.80;;;27.80;99.90;;;;;;5015018;28;20457;-79
2022/05/18 08:53:32;;;;;;;2.60;1.80;;;27.80;99.90;;;;;;5015285;28;20449;-79
2022/05/18 08:56:09;;;;;;;4.20;2.57;;;28.00;99.90;;;;;;5014425;28;20489;-79
2022/05/18 08:58:41;;;;;;;3.40;1.57;;;28.10;99.90;;;;;;5015619;28;20560;-79
2022/05/18 09:01:15;;;;;;;4.43;1.70;;;28.10;99.90;;;;;;5014906;28;20454;-79
2022/05/18 09:03:45;;;;;;;2.93;1.77;;;28.30;99.90;;;;;;5013650;28;20457;-78
2022/05/18 09:06:22;;;;;;;3.87;2.10;;;28.50;99.90;;;;;;5015156;28;20950;-79
2022/05/18 09:11:35;;;;;;;5.83;1.80;;;28.80;99.90;;;;;;5014222;28;20512;-80
2022/05/18 09:14:02;;;;;;;4.03;1.70;;;29.10;99.90;;;;;;5013959;28;20480;-80
2022/05/18 09:16:36;;;;;;;3.03;1.70;;;29.30;99.90;;;;;;5014863;28;20493;-80
2022/05/18 09:19:10;;;;;;;3.70;1.57;;;29.70;99.90;;;;;;5014331;28;20456;-79
2022/05/18 09:21:48;;;;;;;2.50;1.40;;;30.10;99.90;;;;;;5014782;28;20458;-80
2022/05/18 09:24:28;;;;;;;3.00;1.83;;;30.60;99.90;;;;;;5016055;28;20454;-80
2022/05/18 09:27:13;;;;;;;4.83;1.70;;;31.10;99.90;;;;;;5015770;28;20470;-81
2022/05/18 09:29:44;;;;;;;3.13;2.00;;;31.90;99.90;;;;;;5008301;28;20460;-80
2022/05/18 09:32:39;;;;;;;5.20;2.43;;;32.80;99.90;;;;;;5017281;28;21087;-81
2022/05/18 09:35:29;;;;;;;3.20;2.07;;;33.50;99.90;;;;;;5008951;28;20584;-79
2022/05/18 09:38:02;;;;;;;3.30;1.70;;;33.60;99.90;;;;;;5011513;28;20486;-81
2022/05/18 09:40:33;;;;;;;3.37;1.80;;;34.80;99.90;;;;;;5010081;28;20478;-79
2022/05/18 09:43:07;;;;;;;2.70;1.50;;;35.80;99.90;;;;;;5013899;28;20456;-80
2022/05/18 09:45:37;;;;;;;5.10;2.30;;;36.30;91.90;;;;;;5024990;28;20473;-80
2022/05/18 09:48:08;;;;;;;2.90;1.87;;;36.70;92.00;;;;;;5019838;28;20548;-80
2022/05/18 09:50:38;;;;;;;3.63;1.67;;;37.50;90.40;;;;;;5016635;28;20438;-81
2022/05/18 09:53:06;;;;;;;3.20;1.53;;;38.40;85.50;;;;;;5003719;28;20546;-80
2022/05/18 09:55:34;;;;;;;4.20;1.73;;;38.70;99.90;;;;;;5010542;28;20488;-79
2022/05/18 09:58:03;;;;;;;3.30;1.60;;;38.60;99.90;;;;;;5018561;28;20481;-78
2022/05/18 10:00:34;;;;;;;3.33;1.80;;;39.40;99.90;;;;;;5020688;28;20979;-80
2022/05/18 10:08:48;;;;;;;4.00;1.60;;;41.10;99.90;;;;;;5020415;28;20769;-81
2022/05/18 10:11:20;;;;;;;3.10;1.60;;;42.20;99.90;;;;;;5020557;28;20983;-81
2022/05/18 10:14:00;;;;;;;2.80;1.60;;;43.00;99.90;;;;;;5024312;28;20544;-81
2022/05/18 10:16:37;;;;;;;3.00;2.10;;;43.40;99.90;;;;;;5028519;28;20484;-78
2022/05/18 10:19:05;;;;;;;4.60;1.80;;;43.80;99.90;;;;;;5028299;28;20520;-80
2022/05/18 10:21:35;;;;;;;2.43;1.73;;;44.60;99.90;;;;;;5029299;28;20544;-81
2022/05/18 10:24:07;;;;;;;3.87;1.70;;;45.50;99.90;;;;;;5028786;28;20460;-82
2022/05/18 10:26:38;;;;;;;3.40;1.70;;;46.40;99.90;;;;;;5028555;28;20462;-80
2022/05/18 10:29:07;;;;;;;4.80;2.17;;;45.90;99.90;;;;;;5028381;28;20454;-80
2022/05/18 10:31:37;;;;;;;3.13;1.83;;;45.40;99.90;;;;;;5028835;28;20444;-81
2022/05/18 10:34:24;;;;;;;4.63;1.70;;;44.60;99.90;;;;;;5027637;28;20445;-79
2022/05/18 10:39:38;;;;;;;3.83;2.33;;;45.50;99.90;;;;;;5061549;22;20503;-80
2022/05/18 10:42:17;;;;;;;2.70;1.80;;;44.90;99.90;;;;;;5044079;28;20452;-82
2022/05/18 10:44:45;;;;;;;2.53;1.80;;;44.80;99.90;;;;;;5025033;28;20461;-80
2022/05/18 10:47:20;;;;;;;3.13;1.60;;;46.00;99.90;;;;;;5040485;28;20456;-81
2022/05/18 10:49:48;;;;;;;3.17;1.60;;;44.90;99.90;;;;;;5024198;28;20479;-80
2022/05/18 10:52:17;;;;;;;2.60;1.70;;;45.60;99.90;;;;;;5023542;28;21149;-83
2022/05/18 10:54:55;;;;;;;2.40;1.47;;;45.20;99.90;;;;;;5024575;28;20481;-83
2022/05/18 10:57:32;;;;;;;3.20;1.90;;;46.00;99.90;;;;;;5024322;28;20964;-84
2022/05/18 11:00:04;;;;;;;2.70;1.80;;;45.40;99.90;;;;;;5025482;28;20452;-81
2022/05/18 11:02:39;;;;;;;2.70;1.60;;;45.20;99.90;;;;;;5024894;28;20549;-82
2022/05/18 11:05:17;;;;;;;2.40;1.80;;;45.20;99.90;;;;;;5005831;28;20446;-84
2022/05/18 11:07:44;;;;;;;3.10;1.83;;;45.40;99.90;;;;;;5007692;28;20472;-81
2022/05/18 11:10:13;;;;;;;3.83;1.73;;;45.20;99.90;;;;;;5021197;28;20445;-83
2022/05/18 11:12:48;;;;;;;3.30;2.00;;;45.10;99.90;;;;;;5021588;28;20971;-79
2022/05/18 11:15:25;;;;;;;4.43;2.00;;;44.80;99.90;;;;;;5021893;28;20476;-83
2022/05/18 11:18:09;;;;;;;3.10;1.57;;;44.70;99.90;;;;;;5010422;28;20477;-78
2022/05/18 11:20:45;;;;;;;3.43;1.70;;;44.50;99.90;;;;;;5018431;28;20528;-82
2022/05/18 11:23:31;;;;;;;6.50;4.33;;;45.60;99.90;;;;;;5010888;28;20511;-79
2022/05/18 11:26:12;;;;;;;5.20;3.00;;;47.00;99.90;;;;;;5012547;28;20453;-79
2022/05/18 11:28:49;;;;;;;4.77;3.10;;;48.10;99.90;;;;;;5015128;28;20472;-75
2022/05/18 11:31:57;;;;;;;2.30;1.80;;;48.10;99.90;;;;;;5020801;28;20441;-79
2022/05/18 11:34:37;;;;;;;2.67;1.70;;;47.30;99.90;;;;;;5020010;28;20452;-81
2022/05/18 11:37:28;;;;;;;3.40;1.80;;;48.10;99.90;;;;;;5026689;28;20511;-75
2022/05/18 11:40:08;;;;;;;3.28;1.90;;;48.70;99.90;;;;;;5019529;28;20435;-84
2022/05/18 11:42:46;;;;;;;2.03;1.23;;;48.80;99.90;;;;;;5021043;28;20293;-83
2022/05/18 11:45:22;;;;;;;3.90;1.90;;;47.30;99.90;;;;;;5021094;28;20484;-83
2022/05/18 11:48:13;;;;;;;2.40;1.50;;;44.90;99.90;;;;;;5020938;28;20480;-83
2022/05/18 11:50:50;;;;;;;3.60;1.60;;;44.20;99.90;;;;;;5004753;28;20446;-80
2022/05/18 11:53:32;;;;;;;3.53;1.57;;;45.60;99.90;;;;;;5017891;28;20536;-78
2022/05/18 11:56:13;;;;;;;2.37;1.47;;;47.20;99.90;;;;;;5011387;28;20469;-81
2022/05/18 11:58:54;;;;;;;2.60;1.60;;;46.70;99.90;;;;;;5018657;28;20473;-82
2022/05/18 12:01:31;;;;;;;3.07;1.50;;;47.30;99.90;;;;;;5019438;28;20455;-79
2022/05/18 12:04:21;;;;;;;4.23;1.90;;;46.40;99.90;;;;;;5019654;28;20433;-82
2022/05/18 12:07:04;;;;;;;3.43;1.63;;;46.50;99.90;;;;;;5009463;28;20949;-79
2022/05/18 12:09:57;;;;;;;2.40;1.47;;;47.80;99.90;;;;;;5020370;28;20459;-82
2022/05/18 12:12:34;;;;;;;2.50;1.40;;;48.30;99.90;;;;;;5021041;28;20520;-82
2022/05/18 12:15:17;;;;;;;4.30;1.67;;;47.60;99.90;;;;;;5021288;28;20453;-79
2022/05/18 12:17:49;;;;;;;2.40;1.40;;;46.40;99.90;;;;;;5024558;28;20539;-80
2022/05/18 12:20:24;;;;;;;2.77;1.30;;;47.30;99.90;;;;;;5006793;28;20452;-79
2022/05/18 12:22:54;;;;;;;3.07;1.70;;;47.90;99.90;;;;;;5024038;28;20484;-82
2022/05/18 12:25:23;;;;;;;4.00;1.57;;;47.40;99.90;;;;;;5026781;28;20468;-81
2022/05/18 12:27:53;;;;;;;2.27;1.60;;;47.40;99.90;;;;;;5019739;28;20547;-84
2022/05/18 12:30:23;;;;;;;5.07;1.50;;;48.80;99.90;;;;;;5016893;28;20532;-82
2022/05/18 12:32:51;;;;;;;2.73;1.57;;;48.80;99.90;;;;;;5016979;28;20453;-83
2022/05/18 12:35:22;;;;;;;2.93;1.30;;;49.70;99.90;;;;;;5018950;28;20459;-82
2022/05/18 12:37:53;;;;;;;3.13;1.53;;;50.20;99.90;;;;;;5019488;28;20846;-77
2022/05/18 12:40:32;;;;;;;2.53;1.30;;;49.50;99.90;;;;;;5018400;28;20481;-82
2022/05/18 12:43:04;;;;;;;2.60;1.30;;;50.10;99.90;;;;;;5013639;28;20465;-82
2022/05/18 12:45:40;;;;;;;3.07;1.70;;;50.20;99.90;;;;;;5015531;28;20567;-82
2022/05/18 12:48:14;;;;;;;4.40;1.57;;;49.70;99.90;;;;;;5012210;28;20477;-80
2022/05/18 12:50:51;;;;;;;2.90;1.57;;;49.00;99.90;;;;;;5020445;28;20457;-80
2022/05/18 12:53:24;;;;;;;3.80;1.43;;;48.50;99.90;;;;;;5017757;28;20452;-81
2022/05/18 12:55:58;;;;;;;6.03;1.87;;;48.20;99.90;;;;;;5020053;28;20463;-81
2022/05/18 12:58:31;;;;;;;2.63;1.17;;;48.60;99.90;;;;;;5019445;28;20576;-80
2022/05/18 13:01:10;;;;;;;3.30;1.50;;;48.20;99.90;;;;;;5015103;28;20904;-79
2022/05/18 13:03:49;;;;;;;2.63;1.53;;;48.20;99.90;;;;;;5014324;28;20453;-82
2022/05/18 13:06:22;;;;;;;3.07;1.70;;;49.80;99.90;;;;;;5017473;28;21100;-77
2022/05/18 13:09:01;;;;;;;2.00;1.10;;;49.00;99.90;;;;;;5016946;28;20501;-78
2022/05/18 13:11:48;;;;;;;2.40;1.30;;;49.50;99.90;;;;;;5011425;28;20532;-79
2022/05/18 13:14:42;;;;;;;7.63;1.60;;;49.90;99.90;;;;;;5011616;28;20461;-80
2022/05/18 13:17:22;;;;;;;2.80;1.40;;;48.00;99.90;;;;;;5020098;28;20945;-82
2022/05/18 13:20:00;;;;;;;2.20;1.30;;;47.70;99.90;;;;;;5017012;28;20970;-82
2022/05/18 13:22:49;;;;;;;2.43;1.63;;;47.50;99.90;;;;;;5014677;28;20492;-82